createdAt,value
2017-10-12T00:01:41.812Z,91.50
2017-10-12T00:04:51.713Z,91.50
2017-10-12T00:08:01.528Z,91.60
2017-10-12T00:11:12.331Z,91.50
2017-10-12T00:14:22.222Z,91.50
2017-10-12T00:17:32.780Z,91.70
2017-10-12T00:20:43.566Z,91.80
2017-10-12T00:23:54.239Z,91.80
2017-10-12T00:27:04.951Z,92.00
2017-10-12T00:30:14.908Z,92.00
2017-10-12T00:33:24.697Z,92.20
2017-10-12T00:36:34.470Z,92.20
2017-10-12T00:39:45.240Z,92.30
2017-10-12T00:42:57.767Z,92.70
2017-10-12T00:46:07.806Z,92.50
2017-10-12T00:49:19.361Z,92.40
2017-10-12T00:52:29.238Z,92.40
2017-10-12T00:55:39.095Z,92.50
2017-10-12T00:58:49.676Z,92.40
2017-10-12T01:01:59.642Z,92.30
2017-10-12T01:05:10.843Z,92.70
2017-10-12T01:08:21.127Z,92.60
2017-10-12T01:11:32.068Z,92.60
2017-10-12T01:14:43.346Z,92.90
2017-10-12T01:17:53.754Z,92.80
2017-10-12T01:21:03.814Z,93.00
2017-10-12T01:24:13.405Z,93.00
2017-10-12T01:27:23.696Z,93.00
2017-10-12T01:30:35.048Z,93.00
2017-10-12T01:33:44.656Z,93.00
2017-10-12T01:36:54.381Z,93.10
2017-10-12T01:40:04.112Z,93.20
2017-10-12T01:43:14.709Z,93.10
2017-10-12T01:46:26.031Z,93.10
2017-10-12T01:49:36.756Z,93.10
2017-10-12T01:52:46.190Z,92.90
2017-10-12T01:55:56.333Z,93.00
2017-10-12T01:59:06.938Z,92.90
2017-10-12T02:02:18.442Z,92.80
2017-10-12T02:05:28.986Z,92.80
2017-10-12T02:08:38.986Z,92.80
2017-10-12T02:11:49.766Z,92.90
2017-10-12T02:15:01.270Z,92.90
2017-10-12T02:18:11.355Z,92.80
2017-10-12T02:21:21.116Z,92.90
2017-10-12T02:24:31.949Z,92.70
2017-10-12T02:27:43.389Z,92.80
2017-10-12T02:30:53.169Z,92.80
2017-10-12T02:34:03.222Z,93.00
2017-10-12T02:37:12.849Z,92.90
2017-10-12T02:40:22.805Z,93.00
2017-10-12T02:43:32.873Z,93.00
2017-10-12T02:46:43.478Z,92.80
2017-10-12T02:49:53.328Z,93.00
2017-10-12T02:53:03.318Z,92.90
2017-10-12T02:56:14.217Z,92.90
2017-10-12T02:59:24.964Z,93.00
2017-10-12T03:02:34.848Z,93.00
2017-10-12T03:05:45.465Z,93.00
2017-10-12T03:08:55.369Z,93.10
2017-10-12T03:12:05.019Z,93.10
2017-10-12T03:15:15.749Z,93.20
2017-10-12T03:18:25.815Z,93.10
2017-10-12T03:21:36.129Z,93.20
2017-10-12T03:24:46.251Z,93.30
2017-10-12T03:27:56.775Z,93.50
2017-10-12T03:31:08.926Z,93.40
2017-10-12T03:34:19.542Z,93.40
2017-10-12T03:37:30.083Z,93.50
2017-10-12T03:40:40.190Z,93.50
2017-10-12T03:43:50.673Z,93.40
2017-10-12T03:47:00.543Z,93.40
2017-10-12T03:50:11.001Z,93.50
2017-10-12T03:53:21.713Z,93.50
2017-10-12T03:56:31.957Z,93.40
2017-10-12T03:59:41.975Z,93.40
2017-10-12T04:02:53.429Z,93.60
2017-10-12T04:06:03.886Z,93.60
2017-10-12T04:09:14.580Z,93.60
2017-10-12T04:12:24.378Z,93.60
2017-10-12T04:15:35.066Z,93.60
2017-10-12T04:18:44.883Z,93.70
2017-10-12T04:21:55.756Z,93.70
2017-10-12T04:25:06.635Z,93.70
2017-10-12T04:28:17.126Z,93.70
2017-10-12T04:31:27.910Z,93.70
2017-10-12T04:34:39.484Z,93.90
2017-10-12T04:37:49.543Z,93.90
2017-10-12T04:40:59.502Z,94.10
2017-10-12T04:44:10.043Z,93.80
2017-10-12T04:47:20.806Z,93.90
2017-10-12T04:50:30.725Z,94.10
2017-10-12T04:53:41.428Z,94.10
2017-10-12T04:56:51.367Z,94.00
2017-10-12T05:00:00.985Z,94.10
2017-10-12T05:03:12.130Z,94.00
2017-10-12T05:06:22.504Z,94.10
2017-10-12T05:09:32.883Z,94.20
2017-10-12T05:12:43.594Z,94.40
2017-10-12T05:15:53.450Z,94.40
2017-10-12T05:19:03.401Z,94.50
2017-10-12T05:22:13.034Z,94.40
2017-10-12T05:25:22.851Z,94.40
2017-10-12T05:28:33.035Z,94.40
2017-10-12T05:31:42.874Z,94.60
2017-10-12T05:34:52.718Z,94.50
2017-10-12T05:38:02.503Z,94.60
2017-10-12T05:41:13.257Z,94.70
2017-10-12T05:44:23.849Z,94.80
2017-10-12T05:47:33.636Z,94.70
2017-10-12T05:50:43.496Z,94.60
2017-10-12T05:53:54.577Z,94.90
2017-10-12T05:57:05.926Z,94.60
2017-10-12T06:00:16.932Z,94.60
2017-10-12T06:03:27.873Z,94.40
2017-10-12T06:06:38.002Z,94.30
2017-10-12T06:09:48.721Z,94.20
2017-10-12T06:12:59.237Z,94.00
2017-10-12T06:16:09.200Z,94.00
2017-10-12T06:19:19.968Z,94.10
2017-10-12T06:22:30.767Z,94.10
2017-10-12T06:25:41.600Z,93.60
2017-10-12T06:28:52.229Z,93.60
2017-10-12T06:32:02.166Z,93.80
2017-10-12T06:35:12.938Z,93.70
2017-10-12T06:38:23.492Z,93.70
2017-10-12T06:41:33.553Z,93.60
2017-10-12T06:44:44.260Z,93.60
2017-10-12T06:47:54.189Z,93.60
2017-10-12T06:51:05.014Z,93.60
2017-10-12T06:54:15.897Z,93.50
2017-10-12T06:57:26.006Z,93.40
2017-10-12T07:00:36.636Z,93.60
2017-10-12T07:03:46.654Z,93.50
2017-10-12T07:06:58.133Z,93.70
2017-10-12T07:10:08.105Z,93.70
2017-10-12T07:13:18.799Z,93.70
2017-10-12T07:16:30.295Z,93.40
2017-10-12T07:19:40.371Z,93.40
2017-10-12T07:22:51.065Z,93.40
2017-10-12T07:26:01.461Z,93.40
2017-10-12T07:29:11.989Z,93.40
2017-10-12T07:32:22.984Z,93.20
2017-10-12T07:35:34.537Z,93.20
2017-10-12T07:38:46.439Z,93.20
2017-10-12T07:41:57.452Z,93.20
2017-10-12T07:45:08.003Z,93.20
2017-10-12T07:48:18.034Z,93.50
2017-10-12T07:51:27.894Z,92.80
2017-10-12T07:54:38.687Z,92.60
2017-10-12T07:57:49.655Z,93.00
2017-10-12T08:00:59.582Z,92.70
2017-10-12T08:04:10.242Z,92.70
2017-10-12T08:07:21.442Z,92.70
2017-10-12T08:10:31.545Z,92.70
2017-10-12T08:13:42.362Z,92.60
2017-10-12T08:16:52.173Z,92.70
2017-10-12T08:20:03.005Z,92.50
2017-10-12T08:23:13.021Z,93.10
2017-10-12T08:26:22.831Z,93.90
2017-10-12T08:29:35.054Z,94.00
2017-10-12T08:32:45.330Z,94.00
2017-10-12T08:35:55.407Z,94.10
2017-10-12T08:39:13.494Z,94.00
2017-10-12T08:42:25.013Z,93.70
2017-10-12T08:45:36.053Z,93.60
2017-10-12T08:48:46.923Z,93.10
2017-10-12T08:51:57.023Z,93.00
2017-10-12T08:55:07.607Z,92.70
2017-10-12T08:58:17.574Z,92.60
2017-10-12T09:01:28.499Z,92.50
2017-10-12T09:04:39.266Z,92.20
2017-10-12T09:07:49.196Z,92.50
2017-10-12T09:10:59.967Z,92.00
2017-10-12T09:14:10.359Z,91.90
2017-10-12T09:17:22.031Z,91.70
2017-10-12T09:20:40.008Z,91.40
2017-10-12T09:24:01.534Z,91.20
2017-10-12T09:43:12.377Z,90.10
2017-10-12T09:46:23.438Z,89.90
2017-10-12T09:49:33.449Z,90.10
2017-10-12T09:52:44.276Z,89.60
2017-10-12T09:55:54.146Z,89.50
2017-10-12T09:59:04.988Z,88.90
2017-10-12T10:02:15.660Z,88.90
2017-10-12T10:18:26.277Z,87.90
2017-10-12T10:21:36.726Z,88.50
2017-10-12T10:24:46.640Z,86.60
2017-10-12T10:42:58.597Z,85.90
2017-10-12T10:46:08.971Z,86.40
2017-10-12T10:49:20.437Z,85.20
2017-10-12T11:31:05.383Z,78.00
2017-10-12T11:34:16.269Z,78.20
2017-10-12T11:37:27.057Z,78.70
2017-10-12T11:40:37.844Z,80.00
2017-10-12T11:43:47.443Z,79.50
2017-10-12T11:46:57.367Z,78.90
2017-10-12T11:50:08.045Z,75.10
2017-10-12T11:53:18.836Z,73.60
2017-10-12T11:56:29.227Z,72.90
2017-10-12T11:59:39.166Z,73.70
2017-10-12T12:02:49.978Z,75.50
2017-10-12T12:05:59.782Z,70.80
2017-10-12T12:09:09.762Z,72.70
2017-10-12T12:12:20.529Z,72.70
2017-10-12T12:15:30.376Z,68.00
2017-10-12T12:18:40.594Z,67.30
2017-10-12T12:21:50.348Z,68.30
2017-10-12T12:25:00.640Z,68.80
2017-10-12T12:28:11.189Z,70.00
2017-10-12T12:31:21.529Z,69.60
2017-10-12T12:34:32.648Z,70.80
2017-10-12T12:37:42.725Z,70.80
2017-10-12T12:40:52.784Z,71.30
2017-10-12T12:44:04.512Z,72.20
2017-10-12T12:47:14.930Z,70.20
2017-10-12T16:37:31.701Z,99.90
2017-10-12T17:28:36.190Z,75.40
2017-10-12T17:31:46.214Z,75.90
2017-10-12T17:34:56.934Z,75.90
2017-10-12T17:38:08.360Z,76.30
2017-10-12T17:41:18.466Z,76.30
2017-10-12T17:44:29.201Z,76.80
2017-10-12T17:47:39.625Z,75.90
2017-10-12T17:50:50.107Z,75.60
2017-10-12T17:54:00.656Z,76.80
2017-10-12T17:57:10.456Z,76.60
2017-10-12T18:00:20.234Z,75.70
2017-10-12T18:03:30.153Z,76.60
2017-10-12T18:06:40.023Z,76.20
2017-10-12T18:09:50.807Z,76.20
2017-10-12T18:13:05.614Z,77.10
2017-10-12T18:16:16.249Z,77.10
2017-10-12T18:22:36.111Z,77.00
2017-10-12T18:25:46.775Z,77.60
2017-10-12T18:28:56.632Z,77.90
2017-10-12T18:35:17.907Z,78.40
2017-10-12T18:38:29.222Z,78.70
2017-10-12T18:41:39.270Z,80.00
2017-10-12T18:44:55.650Z,80.10
2017-10-12T18:48:08.909Z,80.10
2017-10-12T18:51:26.225Z,80.70
2017-10-12T18:54:37.503Z,81.00
2017-10-12T18:57:48.429Z,81.00
2017-10-12T19:01:02.454Z,82.70
2017-10-12T19:04:13.177Z,83.30
2017-10-12T19:07:23.026Z,82.60
2017-10-12T19:10:35.880Z,83.00
2017-10-12T19:13:46.658Z,83.70
2017-10-12T19:16:56.589Z,83.50
2017-10-12T19:20:06.141Z,82.30
2017-10-12T19:23:20.487Z,84.40
2017-10-12T19:26:30.536Z,84.20
2017-10-12T19:29:41.152Z,84.60
2017-10-12T19:32:51.630Z,85.00
2017-10-12T19:36:02.025Z,85.10
2017-10-12T19:39:12.835Z,85.00
2017-10-12T19:42:23.817Z,86.10
2017-10-12T19:45:33.936Z,86.10
2017-10-12T19:48:44.525Z,86.00
2017-10-12T19:51:55.428Z,85.80
2017-10-12T19:55:06.232Z,86.10
2017-10-12T19:58:16.603Z,86.20
2017-10-12T20:01:28.200Z,85.90
2017-10-12T20:04:38.187Z,85.70
2017-10-12T20:07:49.774Z,86.10
2017-10-12T20:10:59.937Z,86.10
2017-10-12T20:14:17.510Z,86.90
2017-10-12T20:17:21.417Z,86.40
2017-10-12T20:20:32.065Z,87.00
2017-10-12T20:23:42.140Z,87.00
2017-10-12T20:26:52.012Z,87.20
2017-10-12T20:30:01.889Z,87.20
2017-10-12T20:33:12.512Z,88.00
2017-10-12T20:36:22.673Z,88.80
2017-10-12T20:39:32.697Z,89.10
2017-10-12T20:42:44.203Z,90.00
2017-10-12T20:45:55.017Z,90.00
2017-10-12T20:49:04.898Z,90.00
2017-10-12T20:52:15.686Z,90.00
2017-10-12T20:55:27.550Z,89.40
2017-10-12T20:58:38.094Z,89.70
2017-10-12T21:01:48.039Z,89.60
2017-10-12T21:04:58.806Z,89.30
2017-10-12T21:08:09.629Z,88.70
2017-10-12T21:11:21.029Z,88.00
2017-10-12T21:14:31.809Z,87.80
2017-10-12T21:17:41.873Z,87.80
2017-10-12T21:20:52.707Z,87.80
2017-10-12T21:24:03.933Z,87.60
2017-10-12T21:27:14.246Z,87.70
2017-10-12T21:30:25.898Z,87.20
2017-10-12T21:33:35.825Z,87.60
2017-10-12T21:36:48.468Z,87.60
2017-10-12T21:39:59.322Z,87.00
2017-10-12T21:43:11.252Z,86.10
2017-10-12T21:46:22.310Z,86.40
2017-10-12T21:49:33.072Z,86.20
2017-10-12T21:52:44.012Z,86.10
2017-10-12T21:55:55.566Z,86.30
2017-10-12T21:59:06.461Z,86.20
2017-10-12T22:02:17.306Z,86.20
2017-10-12T22:05:28.287Z,86.20
2017-10-12T22:08:39.183Z,86.00
2017-10-12T22:11:50.492Z,85.50
2017-10-12T22:15:01.240Z,85.50
2017-10-12T22:18:11.411Z,85.20
2017-10-12T22:21:22.274Z,85.70
2017-10-12T22:24:33.036Z,85.60
2017-10-12T22:27:42.904Z,85.60
2017-10-12T22:30:53.839Z,86.40
2017-10-12T22:34:04.615Z,86.40
2017-10-12T22:37:15.383Z,86.60
2017-10-12T22:40:27.014Z,85.40
2017-10-12T22:43:36.871Z,85.40
2017-10-12T22:46:47.746Z,85.70
2017-10-12T22:50:04.384Z,85.70
2017-10-12T22:53:15.075Z,85.70
2017-10-12T22:56:28.219Z,86.40
2017-10-12T22:59:40.103Z,86.70
2017-10-12T23:02:50.783Z,86.20
2017-10-12T23:06:00.761Z,86.20
2017-10-12T23:09:10.835Z,86.30
2017-10-12T23:12:21.208Z,86.60
2017-10-12T23:15:32.654Z,87.20
2017-10-12T23:18:42.657Z,87.00
2017-10-12T23:21:52.466Z,86.40
2017-10-12T23:25:04.095Z,87.20
2017-10-12T23:28:13.849Z,86.70
2017-10-12T23:31:24.475Z,87.20
2017-10-12T23:34:35.946Z,87.00
2017-10-12T23:37:47.384Z,87.80
2017-10-12T23:40:57.737Z,87.20
2017-10-12T23:44:08.025Z,87.70
2017-10-12T23:47:18.451Z,87.40
2017-10-12T23:50:28.219Z,87.40
2017-10-12T23:53:38.466Z,87.50
2017-10-12T23:56:48.663Z,87.60
